Time;durP1;ratioP1;P1;durP2;ratioP2;P2;SDS_P1;SDS_P2;PMS_P1;PMS_P2;Temp;Humidity;BMP_temperature;BMP_pressure;BME280_temperature;BME280_humidity;BME280_pressure;Samples;Min_cycle;Max_cycle;Signal;HPM_P1;HPM_P2
2022/12/29 00:02:16;;;;;;;0.88;0.22;;;12.00;99.90;;;;;;5073251;28;20024;-77
2022/12/29 00:04:43;;;;;;;0.85;0.22;;;11.00;99.90;;;;;;5073558;28;20074;-78
2022/12/29 00:07:08;;;;;;;0.20;0.00;;;11.00;99.90;;;;;;5073268;28;20498;-78
2022/12/29 00:09:35;;;;;;;0.95;0.10;;;11.10;99.90;;;;;;5071925;28;20020;-78
2022/12/29 00:12:02;;;;;;;0.17;0.00;;;11.10;99.90;;;;;;5073695;28;20082;-78
2022/12/29 00:17:12;;;;;;;0.15;0.00;;;11.20;99.90;;;;;;5073440;28;20036;-78
2022/12/29 00:36:30;;;;;;;1.98;0.20;;;11.20;99.90;;;;;;5073582;28;20090;-77
2022/12/29 00:44:30;;;;;;;0.40;0.10;;;11.20;99.90;;;;;;5077683;28;20059;-78
2022/12/29 00:46:56;;;;;;;0.10;0.00;;;11.20;99.90;;;;;;5076700;28;20060;-78
2022/12/29 00:49:30;;;;;;;0.30;0.00;;;11.30;99.90;;;;;;5076626;28;20107;-78
2022/12/29 00:52:08;;;;;;;1.10;0.50;;;11.20;99.90;;;;;;5075519;28;20093;-78
2022/12/29 00:54:35;;;;;;;2.13;0.10;;;11.20;99.90;;;;;;5076660;28;20025;-77
2022/12/29 00:57:02;;;;;;;0.20;0.00;;;11.30;99.90;;;;;;5075998;28;20033;-78
2022/12/29 00:59:28;;;;;;;0.73;0.22;;;11.20;99.90;;;;;;5075213;28;20027;-78
2022/12/29 01:01:54;;;;;;;1.42;0.10;;;11.30;99.90;;;;;;5075257;28;20107;-78
2022/12/29 01:04:21;;;;;;;0.17;0.00;;;11.40;99.90;;;;;;5076444;28;20488;-78
2022/12/29 01:06:47;;;;;;;0.60;0.00;;;11.30;99.90;;;;;;5075157;28;20029;-77
2022/12/29 01:11:57;;;;;;;0.10;0.00;;;11.30;99.90;;;;;;5076361;28;20529;-77
2022/12/29 01:14:23;;;;;;;0.10;0.00;;;12.10;99.90;;;;;;5076409;28;20053;-78
2022/12/29 01:16:48;;;;;;;0.00;0.00;;;11.30;99.90;;;;;;5076175;28;20031;-77
2022/12/29 01:19:15;;;;;;;0.50;0.00;;;11.20;99.90;;;;;;5076007;28;20075;-78
2022/12/29 01:21:43;;;;;;;0.17;0.00;;;11.10;99.90;;;;;;5076161;28;20020;-77
2022/12/29 01:24:08;;;;;;;0.10;0.00;;;11.00;99.90;;;;;;5074852;28;20028;-78
2022/12/29 01:26:34;;;;;;;1.33;0.05;;;10.90;99.90;;;;;;5076166;28;20073;-77
2022/12/29 01:29:00;;;;;;;1.50;0.15;;;10.80;99.90;;;;;;5075940;28;20506;-77
2022/12/29 01:31:25;;;;;;;2.00;0.10;;;10.80;99.90;;;;;;5074822;28;20484;-77
2022/12/29 01:33:51;;;;;;;0.10;0.00;;;10.70;99.90;;;;;;5075993;28;20104;-78
2022/12/29 01:36:19;;;;;;;0.10;0.00;;;11.40;99.90;;;;;;5076007;28;20031;-77
2022/12/29 01:38:45;;;;;;;2.45;0.00;;;10.60;99.90;;;;;;5075678;28;20499;-77
2022/12/29 01:41:12;;;;;;;0.73;0.00;;;;;;;;;;5076041;28;20463;-77
2022/12/29 01:43:51;;;;;;;0.10;0.00;;;10.60;99.90;;;;;;5075817;28;20017;-77
2022/12/29 01:46:40;;;;;;;0.63;0.00;;;10.60;99.90;;;;;;5076406;28;20108;-77
2022/12/29 01:49:38;;;;;;;0.70;0.10;;;10.60;99.90;;;;;;5074530;28;20487;-77
2022/12/29 01:52:07;;;;;;;0.57;0.10;;;10.50;99.90;;;;;;5031376;28;20046;-77
2022/12/29 01:54:48;;;;;;;1.00;0.00;;;10.50;99.90;;;;;;5074697;28;20025;-77
2022/12/29 01:57:16;;;;;;;0.82;0.00;;;;;;;;;;5075535;28;20028;-77
2022/12/29 01:59:51;;;;;;;2.75;0.00;;;10.60;99.90;;;;;;5075960;28;20375;-77
2022/12/29 02:02:17;;;;;;;2.53;0.32;;;10.60;99.90;;;;;;5074048;28;20035;-77
2022/12/29 02:04:48;;;;;;;0.15;0.00;;;10.60;99.90;;;;;;5075327;28;20048;-77
2022/12/29 02:07:18;;;;;;;0.50;0.10;;;10.60;99.90;;;;;;5073803;28;20559;-78
2022/12/29 02:09:48;;;;;;;0.20;0.00;;;10.60;99.90;;;;;;5074051;28;20013;-78
2022/12/29 02:12:17;;;;;;;0.10;0.00;;;10.70;99.90;;;;;;5075251;28;20048;-78
2022/12/29 02:14:43;;;;;;;0.20;0.00;;;10.70;99.90;;;;;;5075274;28;20027;-78
2022/12/29 02:17:17;;;;;;;0.47;0.00;;;10.70;99.90;;;;;;5075183;28;20025;-78
2022/12/29 02:19:48;;;;;;;1.05;0.45;;;10.70;99.90;;;;;;5075072;28;20407;-78
2022/12/29 02:22:51;;;;;;;2.22;0.00;;;10.70;99.90;;;;;;5073780;28;20048;-78
2022/12/29 02:25:42;;;;;;;0.10;0.10;;;10.70;99.90;;;;;;5075907;28;20032;-80
2022/12/29 02:28:29;;;;;;;2.45;0.00;;;10.80;99.90;;;;;;5076076;28;20027;-79
2022/12/29 02:31:15;;;;;;;1.08;0.00;;;10.80;99.90;;;;;;5074373;28;20111;-79
2022/12/29 02:34:17;;;;;;;2.33;0.00;;;10.80;99.90;;;;;;5075845;28;20078;-79
2022/12/29 02:37:11;;;;;;;1.50;0.00;;;10.70;99.90;;;;;;5056934;28;20040;-79
2022/12/29 02:40:14;;;;;;;0.82;0.10;;;10.70;99.90;;;;;;5074496;28;20324;-81
2022/12/29 02:43:06;;;;;;;1.38;0.00;;;10.70;99.90;;;;;;5075449;28;20033;-79
2022/12/29 02:45:34;;;;;;;1.48;0.00;;;10.70;99.90;;;;;;5074293;28;20055;-80
2022/12/29 02:48:19;;;;;;;1.85;0.00;;;10.70;99.90;;;;;;5075580;28;20103;-79
2022/12/29 02:51:11;;;;;;;1.75;0.05;;;10.70;99.90;;;;;;5074008;28;20491;-80
2022/12/29 02:56:24;;;;;;;1.23;0.03;;;10.70;99.90;;;;;;5076035;28;20063;-80
2022/12/29 02:58:51;;;;;;;2.17;0.00;;;10.70;99.90;;;;;;5074568;28;20025;-80
2022/12/29 03:01:26;;;;;;;1.75;0.43;;;10.70;99.90;;;;;;5073907;28;20402;-80
2022/12/29 03:04:13;;;;;;;1.40;0.00;;;10.80;99.90;;;;;;5075152;28;20031;-80
2022/12/29 03:07:26;;;;;;;0.68;0.00;;;10.80;99.90;;;;;;5075049;28;20024;-79
2022/12/29 03:10:22;;;;;;;0.30;0.00;;;10.80;99.90;;;;;;4976805;28;20030;-79
2022/12/29 03:16:05;;;;;;;0.73;0.00;;;10.70;99.90;;;;;;5067783;28;20055;-79
2022/12/29 03:18:39;;;;;;;0.75;0.00;;;10.60;99.90;;;;;;5074958;28;20017;-79
2022/12/29 03:21:12;;;;;;;1.88;0.00;;;;;;;;;;5073762;28;20434;-79
2022/12/29 03:23:47;;;;;;;4.07;0.05;;;10.50;99.90;;;;;;5075341;28;20020;-79
2022/12/29 03:26:15;;;;;;;0.85;0.00;;;10.50;99.90;;;;;;5075469;28;20025;-80
2022/12/29 03:28:51;;;;;;;3.03;0.38;;;10.40;99.90;;;;;;5075453;28;20105;-79
2022/12/29 03:31:18;;;;;;;1.75;0.00;;;10.40;99.90;;;;;;5075225;28;20107;-79
2022/12/29 03:33:46;;;;;;;0.88;0.15;;;10.40;99.90;;;;;;5074966;28;20040;-79
2022/12/29 03:36:18;;;;;;;5.10;0.00;;;10.30;99.90;;;;;;5073220;28;20369;-80
2022/12/29 03:38:46;;;;;;;0.32;0.00;;;10.30;99.90;;;;;;5075189;28;20069;-80
2022/12/29 03:41:19;;;;;;;1.85;0.00;;;10.30;99.90;;;;;;5073447;28;20379;-79
2022/12/29 03:43:45;;;;;;;0.93;0.00;;;11.10;99.90;;;;;;5074540;28;20025;-79
2022/12/29 03:46:14;;;;;;;2.40;0.00;;;10.40;99.90;;;;;;5074612;28;20487;-79
2022/12/29 03:48:40;;;;;;;1.83;0.00;;;10.40;99.90;;;;;;5074491;28;20056;-79
2022/12/29 03:51:05;;;;;;;0.20;0.05;;;10.40;99.90;;;;;;5074219;28;20158;-79
2022/12/29 03:53:34;;;;;;;1.55;0.00;;;10.40;99.90;;;;;;5072793;28;20034;-79
2022/12/29 03:55:59;;;;;;;0.63;0.00;;;10.30;99.90;;;;;;5072546;28;20082;-80
2022/12/29 03:58:25;;;;;;;4.40;0.32;;;10.20;99.90;;;;;;5073266;28;20418;-79
2022/12/29 04:00:53;;;;;;;4.85;0.00;;;10.20;99.90;;;;;;5072772;28;20471;-79
2022/12/29 04:03:18;;;;;;;0.33;0.00;;;10.20;99.90;;;;;;5073143;28;20052;-80
2022/12/29 04:05:46;;;;;;;5.72;0.43;;;10.10;99.90;;;;;;5073197;28;20063;-79
2022/12/29 04:08:15;;;;;;;2.50;0.00;;;10.10;99.90;;;;;;5072711;28;20039;-79
2022/12/29 04:10:41;;;;;;;0.63;0.00;;;;;;;;;;5074609;28;20032;-80
2022/12/29 04:13:06;;;;;;;0.70;0.10;;;10.10;99.90;;;;;;5074204;28;20028;-79
2022/12/29 04:15:36;;;;;;;3.95;0.43;;;10.00;99.90;;;;;;5071976;28;20028;-79
2022/12/29 04:18:01;;;;;;;2.92;0.00;;;10.10;99.90;;;;;;5075465;28;20494;-78
2022/12/29 04:23:11;;;;;;;1.13;0.30;;;12.60;99.90;;;;;;5078045;28;20530;-79
2022/12/29 04:25:37;;;;;;;2.08;0.00;;;10.20;99.90;;;;;;5075903;28;20021;-79
2022/12/29 04:28:03;;;;;;;6.70;1.27;;;;;;;;;;5077784;28;20102;-78
2022/12/29 04:30:29;;;;;;;0.30;0.00;;;;;;;;;;5075790;28;20136;-79
2022/12/29 04:32:57;;;;;;;2.90;0.25;;;10.20;99.90;;;;;;5075739;28;20059;-79
2022/12/29 04:35:25;;;;;;;11.00;0.73;;;10.30;99.90;;;;;;5075911;28;20071;-79
2022/12/29 04:37:51;;;;;;;4.13;0.15;;;10.30;99.90;;;;;;5075674;28;20796;-78
2022/12/29 04:40:17;;;;;;;4.20;0.00;;;10.90;99.90;;;;;;5077118;28;20028;-79
2022/12/29 04:42:43;;;;;;;5.50;0.00;;;10.40;99.90;;;;;;5075694;28;20013;-78
2022/12/29 04:45:12;;;;;;;3.55;0.15;;;10.30;99.90;;;;;;5077017;28;20479;-79
2022/12/29 04:47:38;;;;;;;3.75;0.00;;;;;;;;;;5076301;28;20386;-78
2022/12/29 04:50:04;;;;;;;5.32;0.25;;;10.20;99.90;;;;;;5077245;28;20036;-78
2022/12/29 04:52:33;;;;;;;2.72;0.00;;;10.20;99.90;;;;;;5075517;28;20023;-79
2022/12/29 04:54:58;;;;;;;4.88;0.20;;;13.00;99.90;;;;;;5077393;28;20047;-79
2022/12/29 04:57:24;;;;;;;3.35;0.05;;;;;;;;;;5076686;28;20016;-79
2022/12/29 04:59:50;;;;;;;2.88;0.08;;;10.00;99.90;;;;;;5076667;28;20029;-80
2022/12/29 05:02:16;;;;;;;6.22;0.43;;;9.80;99.90;;;;;;5076650;28;20387;-79
2022/12/29 05:04:41;;;;;;;4.03;0.00;;;9.80;99.90;;;;;;5076704;28;20506;-80
2022/12/29 05:07:07;;;;;;;1.58;0.10;;;11.90;99.90;;;;;;5077777;28;20021;-80
2022/12/29 05:09:33;;;;;;;3.90;0.38;;;9.80;99.90;;;;;;5076050;28;20029;-79
2022/12/29 05:11:59;;;;;;;4.60;0.20;;;9.80;99.90;;;;;;5081028;28;20024;-78
2022/12/29 05:14:25;;;;;;;6.07;0.13;;;9.90;99.90;;;;;;5085466;28;20032;-79
2022/12/29 05:16:50;;;;;;;4.65;0.15;;;9.90;99.90;;;;;;5082934;28;20020;-80
2022/12/29 05:19:16;;;;;;;6.00;0.00;;;9.90;99.90;;;;;;5077620;28;20044;-78
2022/12/29 05:21:43;;;;;;;6.28;0.55;;;9.90;99.90;;;;;;5077397;28;20025;-78
2022/12/29 05:24:08;;;;;;;4.43;0.50;;;9.90;99.90;;;;;;5077238;28;20071;-77
2022/12/29 05:26:34;;;;;;;4.93;0.00;;;10.00;99.90;;;;;;5077613;28;20025;-78
2022/12/29 05:28:59;;;;;;;3.10;0.00;;;10.00;99.90;;;;;;5076783;28;20024;-78
2022/12/29 05:31:26;;;;;;;8.63;0.25;;;10.00;99.90;;;;;;5076984;28;20540;-77
2022/12/29 05:33:52;;;;;;;10.10;0.10;;;10.00;99.90;;;;;;5076955;28;20391;-77
2022/12/29 05:38:48;;;;;;;6.32;0.75;;;9.80;99.90;;;;;;5035955;28;20053;-79
2022/12/29 05:41:14;;;;;;;8.15;0.22;;;9.80;99.90;;;;;;5037315;28;20021;-77
2022/12/29 05:43:39;;;;;;;9.80;0.80;;;9.80;99.90;;;;;;5035164;28;20029;-78
2022/12/29 05:46:05;;;;;;;5.68;0.03;;;11.60;99.90;;;;;;5035181;28;20033;-78
2022/12/29 05:48:31;;;;;;;4.20;0.30;;;9.70;99.90;;;;;;5036022;28;20031;-80
2022/12/29 05:50:56;;;;;;;4.38;0.00;;;9.70;99.90;;;;;;5036055;28;20025;-79
2022/12/29 05:53:22;;;;;;;1.90;0.22;;;9.70;99.90;;;;;;5035977;28;20399;-79
2022/12/29 05:55:48;;;;;;;7.10;0.35;;;9.80;99.90;;;;;;5036232;28;20029;-79
2022/12/29 05:58:15;;;;;;;9.13;0.25;;;9.70;99.90;;;;;;5035720;28;20025;-79
2022/12/29 06:00:41;;;;;;;4.57;0.20;;;9.70;99.90;;;;;;5036007;28;20072;-79
2022/12/29 06:03:07;;;;;;;5.45;0.10;;;9.80;99.90;;;;;;5034579;28;20026;-79
2022/12/29 06:05:32;;;;;;;5.55;0.10;;;9.80;99.90;;;;;;5036590;28;20030;-78
2022/12/29 06:07:58;;;;;;;6.35;1.17;;;10.50;99.90;;;;;;5036609;28;20030;-79
2022/12/29 06:10:23;;;;;;;5.28;0.50;;;9.70;99.90;;;;;;5034895;28;20388;-79
2022/12/29 06:12:49;;;;;;;7.35;0.40;;;12.60;99.90;;;;;;5036347;28;20030;-80
2022/12/29 06:15:16;;;;;;;8.68;0.73;;;9.60;99.90;;;;;;5036265;28;20022;-79
2022/12/29 06:17:42;;;;;;;5.45;0.28;;;9.70;99.90;;;;;;5036562;28;20028;-79
2022/12/29 06:20:09;;;;;;;5.35;0.00;;;9.60;99.90;;;;;;5037076;28;20022;-79
2022/12/29 06:22:35;;;;;;;9.27;0.30;;;9.70;99.90;;;;;;5036216;28;20026;-79
2022/12/29 06:25:01;;;;;;;4.53;0.00;;;9.60;99.90;;;;;;5034992;28;20119;-79
2022/12/29 06:27:27;;;;;;;10.63;0.63;;;9.60;99.90;;;;;;5035441;28;20025;-78
2022/12/29 06:29:52;;;;;;;2.30;0.10;;;9.60;99.90;;;;;;5035163;28;20472;-78
2022/12/29 06:32:18;;;;;;;4.47;0.10;;;9.60;99.90;;;;;;5035313;28;20093;-79
2022/12/29 06:34:44;;;;;;;3.50;0.10;;;9.50;99.90;;;;;;5035577;28;20387;-79
2022/12/29 06:37:10;;;;;;;8.50;0.60;;;9.40;99.90;;;;;;5033955;28;20030;-78
2022/12/29 06:39:36;;;;;;;6.45;0.20;;;9.40;99.90;;;;;;5033361;28;20136;-78
2022/12/29 06:42:02;;;;;;;6.13;0.10;;;9.30;99.90;;;;;;5035006;28;20025;-79
2022/12/29 06:44:28;;;;;;;6.07;0.63;;;9.40;99.90;;;;;;5033621;28;20017;-78
2022/12/29 06:46:53;;;;;;;6.28;0.00;;;9.40;99.90;;;;;;5035368;28;20224;-79
2022/12/29 06:49:19;;;;;;;6.55;0.85;;;9.80;99.90;;;;;;5035640;28;20079;-79
2022/12/29 06:51:47;;;;;;;15.82;1.00;;;9.50;99.90;;;;;;5036599;28;20024;-79
2022/12/29 06:54:13;;;;;;;9.10;0.75;;;9.50;99.90;;;;;;5036134;28;20041;-80
2022/12/29 06:56:38;;;;;;;8.38;0.45;;;9.50;99.90;;;;;;5034590;28;20026;-79
2022/12/29 06:59:04;;;;;;;15.50;0.75;;;10.10;99.90;;;;;;5035026;28;20116;-79
2022/12/29 07:01:30;;;;;;;4.30;0.10;;;9.60;99.90;;;;;;5035457;28;20022;-78
2022/12/29 07:03:56;;;;;;;6.72;0.20;;;10.60;99.90;;;;;;5035006;28;20025;-79
2022/12/29 07:06:21;;;;;;;10.60;0.73;;;9.60;99.90;;;;;;5034211;28;20022;-79
2022/12/29 07:08:47;;;;;;;6.88;0.52;;;9.50;99.90;;;;;;5034482;28;20017;-79
2022/12/29 07:11:13;;;;;;;1.77;0.30;;;12.40;99.90;;;;;;5036302;28;20029;-79
2022/12/29 07:13:38;;;;;;;7.13;0.30;;;9.40;99.90;;;;;;5035112;28;20028;-79
2022/12/29 07:16:08;;;;;;;2.63;0.43;;;9.70;99.90;;;;;;5035930;28;20384;-79
2022/12/29 07:18:34;;;;;;;5.50;0.60;;;9.10;99.90;;;;;;5033708;28;20025;-78
2022/12/29 07:21:00;;;;;;;5.18;0.25;;;9.10;99.90;;;;;;5034973;28;20420;-80
2022/12/29 07:23:26;;;;;;;4.35;0.55;;;9.10;99.90;;;;;;5034808;28;20028;-79
2022/12/29 07:26:00;;;;;;;2.22;0.00;;;9.00;99.90;;;;;;5035399;28;20087;-79
2022/12/29 07:28:25;;;;;;;5.00;0.13;;;9.00;99.90;;;;;;5034041;28;20060;-78
2022/12/29 07:30:51;;;;;;;9.00;0.65;;;9.00;99.90;;;;;;5034481;28;20030;-78
2022/12/29 07:33:16;;;;;;;6.13;0.32;;;8.90;99.90;;;;;;5033230;28;20022;-78
2022/12/29 07:35:42;;;;;;;3.80;0.20;;;9.10;99.90;;;;;;5034626;28;20083;-79
2022/12/29 07:38:07;;;;;;;5.10;0.10;;;9.00;99.90;;;;;;5033922;28;20048;-79
2022/12/29 07:40:33;;;;;;;7.88;0.17;;;10.50;99.90;;;;;;5034506;28;20033;-79
2022/12/29 07:42:58;;;;;;;6.50;0.20;;;9.10;99.90;;;;;;5032887;28;20082;-78
2022/12/29 07:45:24;;;;;;;3.08;0.10;;;9.10;99.90;;;;;;5033886;28;20429;-79
2022/12/29 07:47:50;;;;;;;3.60;0.40;;;11.50;99.90;;;;;;5034079;28;20472;-78
2022/12/29 07:50:16;;;;;;;8.60;0.28;;;9.20;99.90;;;;;;5033924;28;20388;-78
2022/12/29 07:52:41;;;;;;;6.10;0.85;;;9.70;99.90;;;;;;5033871;28;20444;-78
2022/12/29 07:55:07;;;;;;;10.85;1.02;;;9.20;99.90;;;;;;5034008;28;20108;-79
2022/12/29 07:57:33;;;;;;;12.15;0.45;;;9.30;99.90;;;;;;5032444;28;20495;-78
2022/12/29 07:59:59;;;;;;;9.25;0.60;;;9.30;99.90;;;;;;5034060;28;20053;-79
2022/12/29 08:02:25;;;;;;;5.32;0.20;;;9.30;99.90;;;;;;5033288;28;20021;-78
2022/12/29 08:04:54;;;;;;;13.68;0.43;;;9.40;99.90;;;;;;5033032;28;20014;-79
2022/12/29 08:07:20;;;;;;;5.22;0.00;;;9.40;99.90;;;;;;5033566;28;20029;-79
2022/12/29 08:09:45;;;;;;;3.55;0.47;;;9.40;99.90;;;;;;5032440;28;20028;-78
2022/12/29 08:12:11;;;;;;;2.42;0.00;;;9.50;99.90;;;;;;5032305;28;20434;-78
2022/12/29 08:14:36;;;;;;;8.18;0.22;;;9.50;99.90;;;;;;5032798;28;20389;-79
2022/12/29 08:17:02;;;;;;;4.60;0.30;;;10.70;99.90;;;;;;5033796;28;20095;-78
2022/12/29 08:19:28;;;;;;;7.28;0.90;;;11.70;99.90;;;;;;5032698;28;20022;-79
2022/12/29 08:21:53;;;;;;;5.72;1.02;;;9.70;99.90;;;;;;5032602;28;20119;-79
2022/12/29 08:24:19;;;;;;;9.05;0.47;;;10.10;99.90;;;;;;5032607;28;20021;-79
2022/12/29 08:26:45;;;;;;;4.32;0.30;;;9.70;99.90;;;;;;5034208;28;20021;-79
2022/12/29 08:29:10;;;;;;;8.70;0.10;;;9.70;99.90;;;;;;5033637;28;20029;-79
2022/12/29 08:31:36;;;;;;;10.35;0.90;;;12.10;99.90;;;;;;5034514;28;20028;-79
2022/12/29 08:34:03;;;;;;;18.48;0.95;;;10.80;99.90;;;;;;5034314;28;20358;-79
2022/12/29 08:36:30;;;;;;;9.52;0.90;;;9.80;99.90;;;;;;5032467;28;20476;-78
2022/12/29 08:38:56;;;;;;;10.35;0.45;;;9.90;99.90;;;;;;5034179;28;20047;-79
2022/12/29 08:41:21;;;;;;;7.10;0.82;;;9.80;99.90;;;;;;5035135;28;20472;-79
2022/12/29 08:43:49;;;;;;;7.85;0.20;;;9.80;99.90;;;;;;5033332;28;20032;-80
2022/12/29 08:46:15;;;;;;;6.28;0.20;;;10.20;99.90;;;;;;5032347;28;20079;-80
2022/12/29 08:48:41;;;;;;;7.00;0.20;;;9.70;99.90;;;;;;5032727;28;20057;-80
2022/12/29 08:51:07;;;;;;;10.90;1.25;;;9.70;99.90;;;;;;5034458;28;20068;-80
2022/12/29 08:53:33;;;;;;;4.25;0.57;;;10.70;99.90;;;;;;5034167;28;20501;-81
2022/12/29 08:56:00;;;;;;;5.47;0.20;;;9.70;99.90;;;;;;5034890;28;20527;-80
2022/12/29 08:58:26;;;;;;;6.47;0.65;;;10.50;99.90;;;;;;5033376;28;20057;-78
2022/12/29 09:00:53;;;;;;;10.88;1.13;;;9.70;99.90;;;;;;5033877;28;20380;-80
2022/12/29 09:03:19;;;;;;;8.70;0.95;;;9.70;99.90;;;;;;5033353;28;20068;-79
2022/12/29 09:05:49;;;;;;;3.90;0.40;;;11.30;99.90;;;;;;5035989;28;20501;-79
2022/12/29 09:08:14;;;;;;;6.85;0.30;;;9.80;99.90;;;;;;5038264;28;20500;-79
2022/12/29 09:10:40;;;;;;;7.38;0.65;;;9.80;99.90;;;;;;5039513;28;20021;-79
2022/12/29 09:13:05;;;;;;;7.22;0.10;;;9.80;99.90;;;;;;5037453;28;20033;-79
2022/12/29 09:15:34;;;;;;;9.02;0.10;;;11.20;99.90;;;;;;5039066;28;20037;-78
2022/12/29 09:18:00;;;;;;;5.82;0.10;;;9.70;99.90;;;;;;5037667;28;20085;-79
2022/12/29 09:20:25;;;;;;;12.43;1.38;;;10.50;99.90;;;;;;5039299;28;20041;-78
2022/12/29 09:22:54;;;;;;;8.68;0.43;;;9.60;99.90;;;;;;5037203;28;20022;-78
2022/12/29 09:25:22;;;;;;;5.80;0.30;;;9.40;99.90;;;;;;5037688;28;20035;-79
2022/12/29 09:27:48;;;;;;;7.65;0.10;;;10.60;99.90;;;;;;5039744;28;20104;-79
2022/12/29 09:30:14;;;;;;;4.57;0.10;;;11.20;99.90;;;;;;5037529;28;20060;-79
2022/12/29 09:32:40;;;;;;;4.03;0.28;;;9.40;99.90;;;;;;5038274;28;20032;-75
2022/12/29 09:35:06;;;;;;;6.80;0.57;;;9.70;99.90;;;;;;5038000;28;20025;-79
2022/12/29 09:37:32;;;;;;;4.68;0.10;;;9.30;99.90;;;;;;5036950;28;20618;-79
2022/12/29 09:39:58;;;;;;;17.08;0.90;;;9.20;99.90;;;;;;5036874;28;20100;-78
2022/12/29 09:42:23;;;;;;;7.22;0.17;;;9.20;99.90;;;;;;5038944;28;20025;-79
2022/12/29 09:45:15;;;;;;;9.27;1.10;;;9.10;99.90;;;;;;5039252;28;20022;-79
2022/12/29 09:47:43;;;;;;;3.03;0.10;;;9.10;99.90;;;;;;5037835;28;20021;-79
2022/12/29 09:50:28;;;;;;;8.93;0.52;;;9.10;99.90;;;;;;5037564;28;20026;-79
2022/12/29 09:52:56;;;;;;;7.07;0.80;;;9.00;99.90;;;;;;5037825;28;20030;-79
2022/12/29 09:55:30;;;;;;;4.47;0.28;;;9.00;99.90;;;;;;5037675;28;20434;-79
2022/12/29 09:58:30;;;;;;;3.15;0.57;;;9.10;99.90;;;;;;5037930;28;20018;-78
2022/12/29 10:01:07;;;;;;;3.85;0.13;;;9.10;99.90;;;;;;5019847;28;20117;-79
2022/12/29 10:03:54;;;;;;;11.60;0.40;;;9.10;99.90;;;;;;5034907;28;20017;-79
2022/12/29 10:06:42;;;;;;;3.10;0.10;;;9.00;99.90;;;;;;5036005;28;20043;-78
2022/12/29 10:09:23;;;;;;;7.43;0.60;;;9.10;99.90;;;;;;5036193;28;20025;-78
2022/12/29 10:12:17;;;;;;;7.60;0.32;;;9.10;99.90;;;;;;5034484;28;20563;-79
2022/12/29 10:14:58;;;;;;;0.50;0.00;;;9.10;99.90;;;;;;5033422;28;20507;-79
2022/12/29 10:17:52;;;;;;;8.05;0.50;;;9.20;99.90;;;;;;5035578;28;20087;-78
2022/12/29 10:20:49;;;;;;;1.40;0.08;;;9.20;99.90;;;;;;5034106;28;20014;-79
2022/12/29 10:23:26;;;;;;;7.47;0.32;;;9.20;99.90;;;;;;5035653;28;20021;-79
2022/12/29 10:25:56;;;;;;;3.45;0.65;;;9.20;99.90;;;;;;5035485;28;20396;-78
2022/12/29 10:28:42;;;;;;;5.53;0.20;;;9.30;99.90;;;;;;5034260;28;20457;-79
2022/12/29 10:31:34;;;;;;;4.20;0.50;;;9.30;99.90;;;;;;5034639;28;20091;-78
2022/12/29 10:34:05;;;;;;;6.72;0.77;;;9.30;99.90;;;;;;5024051;28;20377;-79
2022/12/29 10:36:39;;;;;;;7.38;0.65;;;9.30;99.90;;;;;;5034534;28;20033;-78
2022/12/29 10:39:26;;;;;;;5.75;0.00;;;9.30;99.90;;;;;;5034311;28;20022;-78
2022/12/29 10:42:09;;;;;;;5.45;0.15;;;9.40;99.90;;;;;;5034615;28;20107;-78
2022/12/29 10:44:35;;;;;;;10.55;0.75;;;9.30;99.90;;;;;;5036153;28;20480;-78
2022/12/29 10:47:06;;;;;;;10.23;1.48;;;9.30;99.90;;;;;;5035708;28;20021;-79
2022/12/29 10:49:39;;;;;;;6.75;0.47;;;9.40;99.90;;;;;;5034694;28;20022;-79
2022/12/29 10:52:06;;;;;;;11.52;0.57;;;9.40;99.90;;;;;;5036341;28;20035;-79
2022/12/29 10:54:58;;;;;;;11.05;0.63;;;9.50;99.90;;;;;;5035163;28;20029;-79
2022/12/29 10:57:30;;;;;;;11.35;0.68;;;9.50;99.90;;;;;;5035007;28;20036;-75
2022/12/29 10:59:56;;;;;;;14.00;1.63;;;9.40;99.90;;;;;;5033606;28;20144;-77
2022/12/29 11:02:22;;;;;;;15.63;1.00;;;9.40;99.90;;;;;;5033106;28;20026;-76
2022/12/29 11:05:14;;;;;;;11.60;1.02;;;9.40;99.90;;;;;;5036030;28;20519;-78
2022/12/29 11:07:40;;;;;;;10.98;0.55;;;9.30;99.90;;;;;;5034967;28;20025;-78
2022/12/29 11:10:17;;;;;;;8.60;0.47;;;9.40;99.90;;;;;;5033642;28;20117;-75
2022/12/29 11:12:59;;;;;;;22.38;1.50;;;9.40;99.90;;;;;;5034245;28;20055;-76
2022/12/29 11:15:25;;;;;;;9.88;0.98;;;9.40;99.90;;;;;;5034924;28;20060;-76
2022/12/29 11:17:57;;;;;;;11.20;1.33;;;9.40;99.90;;;;;;5032906;28;20026;-75
2022/12/29 11:20:28;;;;;;;10.00;1.27;;;9.50;99.90;;;;;;5032812;28;20550;-79
2022/12/29 11:22:53;;;;;;;9.65;0.85;;;9.60;99.90;;;;;;5033065;28;20037;-77
2022/12/29 11:25:19;;;;;;;15.50;1.10;;;9.60;99.90;;;;;;5034391;28;20372;-76
2022/12/29 11:28:02;;;;;;;9.60;0.55;;;9.80;99.90;;;;;;5032458;28;20022;-79
2022/12/29 11:30:30;;;;;;;12.23;0.70;;;9.90;99.90;;;;;;5016342;28;20025;-78
2022/12/29 11:32:58;;;;;;;10.27;0.60;;;10.10;99.90;;;;;;5034473;28;20166;-74
2022/12/29 11:35:33;;;;;;;18.70;1.80;;;11.00;99.90;;;;;;5033638;28;20057;-74
2022/12/29 11:38:01;;;;;;;7.13;0.55;;;10.20;99.90;;;;;;5032269;28;20124;-73
2022/12/29 11:40:27;;;;;;;17.90;1.60;;;10.30;99.90;;;;;;5033635;28;20108;-74
2022/12/29 11:43:02;;;;;;;18.10;2.97;;;11.90;99.90;;;;;;5032331;28;20013;-74
2022/12/29 11:45:34;;;;;;;11.18;0.57;;;10.50;99.90;;;;;;5034666;28;20025;-78
2022/12/29 11:48:12;;;;;;;14.40;1.48;;;10.40;99.90;;;;;;5033919;28;20068;-78
2022/12/29 11:50:41;;;;;;;15.73;2.13;;;10.50;99.90;;;;;;5034073;28;20473;-78
2022/12/29 11:53:25;;;;;;;;;;;10.40;99.90;;;;;;5033500;28;20026;-78
2022/12/29 11:55:58;;;;;;;18.20;1.38;;;10.20;99.90;;;;;;5034271;28;19909;-78
2022/12/29 11:58:36;;;;;;;16.95;1.98;;;10.20;99.90;;;;;;5034573;28;20029;-78
2022/12/29 12:01:20;;;;;;;13.23;1.53;;;10.10;99.90;;;;;;5032277;28;20017;-78
2022/12/29 12:03:56;;;;;;;23.52;1.95;;;10.00;99.90;;;;;;5034298;28;20084;-79
2022/12/29 12:06:24;;;;;;;17.27;0.65;;;10.00;99.90;;;;;;5032828;28;20029;-78
2022/12/29 12:08:58;;;;;;;17.17;0.87;;;9.90;99.90;;;;;;5034274;28;20071;-78
2022/12/29 12:11:37;;;;;;;15.18;1.00;;;10.00;99.90;;;;;;5032748;28;20036;-78
2022/12/29 12:14:38;;;;;;;12.95;0.73;;;9.90;99.90;;;;;;5033815;28;20021;-78
2022/12/29 12:17:18;;;;;;;13.63;0.90;;;9.90;99.90;;;;;;5015683;28;20103;-78
2022/12/29 12:19:47;;;;;;;17.88;1.63;;;9.80;99.90;;;;;;5033785;28;20026;-78
2022/12/29 12:22:19;;;;;;;17.42;1.95;;;9.70;99.90;;;;;;5032525;28;20489;-78
2022/12/29 12:24:56;;;;;;;13.30;1.25;;;10.70;99.90;;;;;;5032339;28;20495;-77
2022/12/29 12:27:28;;;;;;;8.98;0.60;;;9.60;99.90;;;;;;5031949;28;20083;-76
2022/12/29 12:30:11;;;;;;;13.43;0.88;;;9.60;99.90;;;;;;5032178;28;20025;-78
2022/12/29 12:32:55;;;;;;;8.40;0.82;;;9.70;99.90;;;;;;5033671;28;20026;-78
2022/12/29 12:35:41;;;;;;;15.00;1.10;;;9.70;99.90;;;;;;5033315;28;20025;-79
2022/12/29 12:38:44;;;;;;;11.65;1.27;;;9.70;99.90;;;;;;5033959;28;20029;-75
2022/12/29 12:41:43;;;;;;;18.98;0.88;;;9.70;99.90;;;;;;5036904;28;20080;-75
2022/12/29 12:44:50;;;;;;;11.38;0.85;;;9.80;99.90;;;;;;5036847;28;20025;-75
2022/12/29 12:47:34;;;;;;;16.88;2.00;;;9.80;99.90;;;;;;5016026;28;20109;-77
2022/12/29 12:50:09;;;;;;;15.70;1.05;;;9.90;99.90;;;;;;5036972;28;20025;-77
2022/12/29 12:52:52;;;;;;;6.70;0.00;;;10.00;99.90;;;;;;5036863;28;20024;-77
2022/12/29 12:55:42;;;;;;;12.50;1.58;;;10.10;99.90;;;;;;5037651;28;20081;-78
2022/12/29 12:58:38;;;;;;;8.38;0.88;;;10.20;99.90;;;;;;5037256;28;20026;-76
2022/12/29 13:01:25;;;;;;;12.60;0.32;;;10.30;99.90;;;;;;5035746;28;20029;-78
2022/12/29 13:04:21;;;;;;;15.20;0.75;;;10.30;99.90;;;;;;5037153;28;20361;-75
2022/12/29 13:06:55;;;;;;;6.43;0.25;;;10.30;99.90;;;;;;5035185;28;20030;-75
2022/12/29 13:09:33;;;;;;;8.15;0.43;;;10.20;99.90;;;;;;5037069;28;20032;-76
2022/12/29 13:12:14;;;;;;;20.73;1.50;;;10.20;99.90;;;;;;5036784;28;20488;-77
2022/12/29 13:14:40;;;;;;;5.72;0.05;;;10.20;99.90;;;;;;5035662;28;20068;-77
2022/12/29 13:17:36;;;;;;;11.00;1.58;;;10.20;99.90;;;;;;5036677;28;20464;-77
2022/12/29 13:20:10;;;;;;;13.85;0.65;;;10.20;99.90;;;;;;5037044;28;20021;-77
2022/12/29 13:22:50;;;;;;;11.63;0.82;;;10.20;99.90;;;;;;5036661;28;20036;-77
2022/12/29 13:25:18;;;;;;;11.18;2.00;;;10.20;99.90;;;;;;5036885;28;20024;-77
2022/12/29 13:27:53;;;;;;;10.93;1.05;;;10.20;99.90;;;;;;5035175;28;20400;-78
2022/12/29 13:30:41;;;;;;;13.57;0.98;;;10.20;99.90;;;;;;5034844;28;20431;-77
2022/12/29 13:33:35;;;;;;;11.80;0.90;;;10.20;99.90;;;;;;5036286;28;20444;-77
2022/12/29 13:36:04;;;;;;;5.70;0.30;;;10.10;99.90;;;;;;4966511;28;20375;-77
2022/12/29 13:38:50;;;;;;;6.57;0.85;;;10.20;99.90;;;;;;5035967;28;20112;-77
2022/12/29 13:41:35;;;;;;;11.45;0.95;;;10.10;99.90;;;;;;5025746;28;20092;-77
2022/12/29 13:44:04;;;;;;;7.30;0.57;;;10.20;99.90;;;;;;5036113;28;20392;-76
2022/12/29 13:46:41;;;;;;;14.98;1.23;;;10.10;99.90;;;;;;5036226;28;20104;-76
2022/12/29 13:49:16;;;;;;;9.40;0.45;;;10.10;99.90;;;;;;5035730;28;20447;-76
2022/12/29 13:52:12;;;;;;;9.13;0.70;;;10.10;99.90;;;;;;5034667;28;20057;-76
2022/12/29 13:55:02;;;;;;;12.82;1.90;;;10.10;99.90;;;;;;5036494;28;20030;-77
2022/12/29 13:57:43;;;;;;;18.70;0.55;;;10.10;99.90;;;;;;5035853;28;20026;-76